Time;durP1;ratioP1;P1;durP2;ratioP2;P2;SDS_P1;SDS_P2;PMS_P1;PMS_P2;Temp;Humidity;BMP_temperature;BMP_pressure;BME280_temperature;BME280_humidity;BME280_pressure;Samples;Min_cycle;Max_cycle;Signal;HPM_P1;HPM_P2
2023/09/05 00:00:10;;;;;;;3.90;2.80;;;20.10;1.00;;;;;;5049077;28;20493;-84
2023/09/05 00:02:39;;;;;;;5.40;2.63;;;20.10;1.00;;;;;;5049521;28;20460;-86
2023/09/05 00:05:08;;;;;;;4.33;2.30;;;20.10;1.00;;;;;;5049940;28;20437;-86
2023/09/05 00:07:37;;;;;;;3.43;2.67;;;20.00;1.00;;;;;;5052575;28;20451;-85
2023/09/05 00:10:14;;;;;;;8.07;2.57;;;20.00;1.00;;;;;;5050659;28;20485;-85
2023/09/05 00:12:41;;;;;;;2.60;2.20;;;20.00;1.00;;;;;;5048001;28;20474;-86
2023/09/05 00:15:11;;;;;;;5.13;2.50;;;20.00;1.00;;;;;;5047535;28;20497;-86
2023/09/05 00:17:37;;;;;;;3.73;2.77;;;20.00;1.00;;;;;;5048867;28;20815;-86
2023/09/05 00:20:04;;;;;;;3.63;2.90;;;20.00;1.00;;;;;;5050554;28;20444;-86
2023/09/05 00:22:30;;;;;;;3.73;2.37;;;20.00;1.00;;;;;;5049894;28;20460;-85
2023/09/05 00:24:55;;;;;;;3.50;1.93;;;20.00;1.00;;;;;;5052285;28;20444;-86
2023/09/05 00:27:21;;;;;;;4.70;2.60;;;20.00;1.00;;;;;;5052271;28;20252;-85
2023/09/05 00:29:46;;;;;;;2.70;2.30;;;20.00;1.00;;;;;;5051473;28;20265;-86
2023/09/05 00:32:13;;;;;;;4.90;2.70;;;20.00;1.00;;;;;;5050459;28;20589;-84
2023/09/05 00:34:39;;;;;;;3.40;2.17;;;20.00;1.00;;;;;;5046793;28;20181;-84
2023/09/05 00:37:08;;;;;;;6.20;2.53;;;19.90;1.00;;;;;;5051038;28;20428;-86
2023/09/05 00:39:35;;;;;;;4.30;2.75;;;19.80;1.00;;;;;;5051873;28;20264;-86
2023/09/05 00:42:03;;;;;;;3.63;2.80;;;19.80;1.00;;;;;;5051618;28;20190;-86
2023/09/05 00:44:29;;;;;;;4.53;2.90;;;19.80;1.00;;;;;;5055192;28;21029;-86
2023/09/05 00:46:58;;;;;;;3.47;2.67;;;19.70;1.00;;;;;;5051234;28;20480;-86
2023/09/05 00:49:27;;;;;;;4.30;2.77;;;19.70;1.00;;;;;;5051425;28;20868;-85
2023/09/05 00:51:58;;;;;;;3.13;2.43;;;19.70;1.00;;;;;;5049861;28;20451;-85
2023/09/05 00:54:24;;;;;;;4.13;2.63;;;19.60;1.00;;;;;;5053628;28;20476;-86
2023/09/05 00:56:51;;;;;;;8.23;2.60;;;19.60;1.00;;;;;;5052788;28;20436;-86
2023/09/05 00:59:17;;;;;;;7.93;2.90;;;19.60;1.00;;;;;;5053539;28;20186;-85
2023/09/05 01:01:43;;;;;;;6.40;2.90;;;19.60;1.00;;;;;;5051866;28;20521;-87
2023/09/05 01:04:08;;;;;;;5.20;2.87;;;19.60;1.00;;;;;;5051554;28;20519;-85
2023/09/05 01:06:49;;;;;;;3.67;2.30;;;19.60;1.00;;;;;;5053243;28;20225;-85
2023/09/05 01:09:33;;;;;;;4.47;2.50;;;19.60;1.00;;;;;;5047810;28;20213;-83
2023/09/05 01:11:59;;;;;;;4.03;2.60;;;19.70;1.00;;;;;;5051254;28;20451;-86
2023/09/05 01:14:25;;;;;;;5.63;2.43;;;19.70;1.00;;;;;;5052947;28;20597;-85
2023/09/05 01:16:50;;;;;;;3.23;2.40;;;19.70;1.00;;;;;;5052470;28;20512;-86
2023/09/05 01:19:17;;;;;;;4.00;3.00;;;19.80;1.00;;;;;;5047476;28;20182;-86
2023/09/05 01:21:58;;;;;;;3.00;2.33;;;19.80;1.00;;;;;;5053144;28;20178;-87
2023/09/05 01:24:24;;;;;;;3.70;2.53;;;19.70;1.00;;;;;;5045363;28;20517;-85
2023/09/05 01:29:29;;;;;;;3.87;2.73;;;19.70;1.00;;;;;;5638317;22;20522;-85
2023/09/05 01:31:59;;;;;;;5.27;2.20;;;19.70;1.00;;;;;;5050281;28;20432;-86
2023/09/05 01:34:25;;;;;;;4.23;2.53;;;19.70;1.00;;;;;;5029925;28;20433;-86
2023/09/05 01:36:51;;;;;;;4.53;2.80;;;19.70;1.00;;;;;;5032878;28;20436;-86
2023/09/05 01:39:16;;;;;;;3.23;2.03;;;19.70;1.00;;;;;;5032988;28;20453;-85
2023/09/05 01:41:42;;;;;;;3.70;2.50;;;19.70;1.00;;;;;;5031631;28;20186;-84
2023/09/05 01:44:08;;;;;;;4.83;3.00;;;19.70;1.00;;;;;;5031462;28;20179;-86
2023/09/05 01:46:34;;;;;;;2.23;2.00;;;19.70;1.00;;;;;;5029380;28;20183;-86
2023/09/05 01:48:59;;;;;;;5.20;2.53;;;19.70;1.00;;;;;;5031892;28;20237;-86
2023/09/05 01:51:25;;;;;;;5.17;2.10;;;19.70;1.00;;;;;;5031509;28;20187;-86
2023/09/05 01:53:50;;;;;;;4.00;2.60;;;19.70;1.00;;;;;;5032838;28;20218;-85
2023/09/05 01:56:16;;;;;;;3.80;2.60;;;19.60;1.00;;;;;;5032841;28;20183;-86
2023/09/05 01:58:41;;;;;;;3.77;2.20;;;19.70;1.00;;;;;;5032442;28;20275;-87
2023/09/05 02:01:07;;;;;;;4.47;2.47;;;19.60;1.00;;;;;;5032265;28;20191;-86
2023/09/05 02:03:32;;;;;;;4.73;2.67;;;19.60;1.00;;;;;;5033226;28;20645;-86
2023/09/05 02:05:58;;;;;;;2.97;2.37;;;19.60;1.00;;;;;;5030286;28;20277;-85
2023/09/05 02:08:23;;;;;;;4.00;2.23;;;19.50;1.00;;;;;;5032794;28;20239;-85
2023/09/05 02:10:52;;;;;;;3.53;2.20;;;19.50;1.00;;;;;;5040819;28;20189;-88
2023/09/05 02:13:17;;;;;;;3.50;1.97;;;19.50;1.00;;;;;;5030720;28;20296;-86
2023/09/05 02:15:43;;;;;;;4.20;2.20;;;19.50;1.00;;;;;;5032934;28;20463;-85
2023/09/05 02:18:11;;;;;;;3.27;2.40;;;19.40;1.00;;;;;;5029743;28;20329;-87
2023/09/05 02:20:37;;;;;;;5.33;2.60;;;19.40;1.00;;;;;;5031387;28;20433;-85
2023/09/05 02:23:03;;;;;;;3.20;2.57;;;19.40;1.00;;;;;;5033417;28;20460;-87
2023/09/05 02:25:29;;;;;;;3.17;2.40;;;19.40;1.00;;;;;;5032233;28;20441;-85
2023/09/05 02:27:54;;;;;;;6.80;3.10;;;19.40;1.00;;;;;;5033194;28;20198;-86
2023/09/05 02:30:20;;;;;;;3.80;2.50;;;19.40;1.00;;;;;;5045757;28;20224;-85
2023/09/05 02:32:50;;;;;;;3.13;2.53;;;19.40;1.00;;;;;;5052249;28;20233;-84
2023/09/05 02:35:16;;;;;;;5.43;2.60;;;19.40;1.00;;;;;;5047936;28;20646;-85
2023/09/05 02:37:42;;;;;;;5.13;2.40;;;19.40;1.00;;;;;;5051930;28;20435;-86
2023/09/05 02:40:08;;;;;;;3.57;2.40;;;19.40;1.00;;;;;;5048448;28;20204;-85
2023/09/05 02:42:33;;;;;;;4.10;2.53;;;19.30;1.00;;;;;;5051752;28;20651;-85
2023/09/05 02:44:59;;;;;;;3.37;2.40;;;19.30;1.00;;;;;;5052841;28;20494;-85
2023/09/05 02:47:24;;;;;;;3.27;2.40;;;19.30;1.00;;;;;;5052406;28;20231;-87
2023/09/05 02:49:50;;;;;;;5.10;2.40;;;19.30;1.00;;;;;;5051854;28;20205;-86
2023/09/05 02:52:16;;;;;;;6.43;2.70;;;19.20;1.00;;;;;;5052123;28;20291;-85
2023/09/05 02:54:42;;;;;;;3.80;2.10;;;19.20;1.00;;;;;;5054824;28;20180;-86
2023/09/05 02:57:07;;;;;;;7.20;2.37;;;19.20;1.00;;;;;;5056107;28;20515;-85
2023/09/05 02:59:33;;;;;;;3.63;2.20;;;19.20;1.00;;;;;;5052870;28;20198;-87
2023/09/05 03:01:59;;;;;;;3.50;2.70;;;19.20;1.00;;;;;;5053111;28;20186;-86
2023/09/05 03:04:26;;;;;;;2.87;2.33;;;19.20;1.00;;;;;;5054109;28;20174;-86
2023/09/05 03:06:52;;;;;;;5.40;3.50;;;19.20;1.00;;;;;;5054757;28;20188;-86
2023/09/05 03:09:17;;;;;;;3.80;2.63;;;19.10;1.00;;;;;;5055322;28;20543;-87
2023/09/05 03:11:43;;;;;;;6.70;2.63;;;19.10;1.00;;;;;;5056236;28;20221;-85
2023/09/05 03:14:08;;;;;;;4.10;2.40;;;19.10;1.00;;;;;;5053483;28;20214;-85
2023/09/05 03:16:34;;;;;;;4.20;2.77;;;19.10;1.00;;;;;;5055726;28;20201;-86
2023/09/05 03:18:59;;;;;;;3.30;2.50;;;19.10;1.00;;;;;;5054484;28;20201;-86
2023/09/05 03:21:28;;;;;;;3.00;2.47;;;19.10;1.00;;;;;;5055282;28;20198;-85
2023/09/05 03:23:54;;;;;;;6.33;3.37;;;19.00;6.10;;;;;;5056097;28;20258;-85
2023/09/05 03:26:20;;;;;;;3.70;2.80;;;19.00;21.70;;;;;;5055499;28;20462;-85
2023/09/05 03:28:46;;;;;;;4.40;2.90;;;18.90;42.00;;;;;;5054232;28;20535;-85
2023/09/05 03:31:11;;;;;;;5.23;2.93;;;18.90;59.90;;;;;;5055932;28;20269;-85
2023/09/05 03:33:37;;;;;;;5.90;2.90;;;18.90;80.90;;;;;;5052653;28;20209;-87
2023/09/05 03:36:05;;;;;;;4.13;3.20;;;18.80;99.60;;;;;;5054165;28;20523;-85
2023/09/05 03:38:31;;;;;;;6.47;3.00;;;18.70;99.90;;;;;;5053827;28;20444;-85
2023/09/05 03:40:58;;;;;;;4.60;3.60;;;18.60;99.90;;;;;;5055218;28;20448;-86
2023/09/05 03:43:23;;;;;;;5.40;3.13;;;18.60;99.90;;;;;;5054157;28;20436;-87
2023/09/05 03:45:49;;;;;;;4.73;3.40;;;18.60;99.90;;;;;;5058584;28;20857;-85
2023/09/05 03:48:15;;;;;;;6.63;3.23;;;18.50;99.90;;;;;;5056118;28;20178;-86
2023/09/05 03:50:40;;;;;;;4.63;3.37;;;18.50;99.90;;;;;;5053097;28;20190;-85
2023/09/05 03:53:06;;;;;;;3.80;2.83;;;18.50;99.90;;;;;;5056519;28;20545;-86
2023/09/05 03:55:34;;;;;;;6.60;3.40;;;18.50;99.90;;;;;;5055735;28;20243;-88
2023/09/05 03:58:04;;;;;;;6.57;3.10;;;18.50;99.90;;;;;;5054014;28;20181;-87
2023/09/05 04:00:34;;;;;;;5.00;3.00;;;18.40;99.90;;;;;;5058425;28;20479;-85
2023/09/05 04:03:02;;;;;;;4.50;3.30;;;18.40;99.90;;;;;;5054209;28;20444;-86
2023/09/05 04:05:28;;;;;;;3.53;3.13;;;18.40;99.90;;;;;;5054377;28;20562;-86
2023/09/05 04:07:54;;;;;;;6.33;2.83;;;18.40;99.90;;;;;;5054148;28;20547;-85
2023/09/05 04:10:20;;;;;;;4.60;3.20;;;18.40;99.90;;;;;;5056693;28;21245;-88
2023/09/05 04:12:45;;;;;;;5.20;3.10;;;18.30;99.90;;;;;;5060930;28;20209;-86
2023/09/05 04:15:11;;;;;;;4.00;3.17;;;18.30;99.90;;;;;;5053927;28;20803;-88
2023/09/05 04:17:37;;;;;;;4.00;3.07;;;18.30;99.90;;;;;;5060270;28;20173;-85
2023/09/05 04:20:06;;;;;;;4.37;3.33;;;18.30;99.90;;;;;;5055222;28;20576;-86
2023/09/05 04:22:32;;;;;;;5.17;3.27;;;18.30;99.90;;;;;;5055925;28;20451;-86
2023/09/05 04:24:57;;;;;;;4.57;3.20;;;18.20;99.90;;;;;;5053420;28;20437;-87
2023/09/05 04:27:23;;;;;;;3.20;2.37;;;18.30;99.90;;;;;;5055368;28;20592;-85
2023/09/05 04:29:54;;;;;;;4.80;2.80;;;18.30;99.90;;;;;;5055332;28;20217;-86
2023/09/05 04:32:26;;;;;;;6.10;3.00;;;18.30;99.90;;;;;;5053662;28;20463;-85
2023/09/05 04:34:55;;;;;;;4.20;3.20;;;18.30;99.90;;;;;;5052522;28;20809;-85
2023/09/05 04:37:21;;;;;;;5.57;3.20;;;18.30;99.90;;;;;;5053269;28;20436;-83
2023/09/05 04:39:46;;;;;;;2.87;2.40;;;18.20;99.90;;;;;;5051554;28;20532;-86
2023/09/05 04:42:12;;;;;;;3.73;2.83;;;18.20;99.90;;;;;;5049597;28;20194;-85
2023/09/05 04:44:37;;;;;;;6.33;3.20;;;18.20;99.90;;;;;;5051614;28;20186;-85
2023/09/05 04:47:28;;;;;;;5.53;3.00;;;18.20;99.90;;;;;;5052903;28;20188;-85
2023/09/05 04:49:58;;;;;;;4.93;3.10;;;18.20;99.90;;;;;;5051893;28;20198;-85
2023/09/05 04:52:28;;;;;;;5.97;3.00;;;18.20;99.90;;;;;;5053839;28;20460;-85
2023/09/05 04:54:55;;;;;;;6.27;3.30;;;18.20;93.80;;;;;;5054468;28;20523;-85
2023/09/05 04:57:21;;;;;;;5.30;3.33;;;18.20;88.80;;;;;;5052535;28;20490;-85
2023/09/05 04:59:51;;;;;;;4.97;2.87;;;18.10;92.00;;;;;;5047691;28;20456;-85
2023/09/05 05:02:17;;;;;;;4.63;3.03;;;18.20;91.00;;;;;;5052503;28;20178;-85
2023/09/05 05:04:43;;;;;;;4.57;3.30;;;18.20;88.00;;;;;;5050145;28;20432;-85
2023/09/05 05:07:10;;;;;;;4.60;2.97;;;18.20;61.70;;;;;;5052721;28;20555;-86
2023/09/05 05:09:36;;;;;;;5.13;3.10;;;18.20;59.50;;;;;;5052110;28;20444;-86
2023/09/05 05:12:02;;;;;;;4.60;3.50;;;18.20;96.30;;;;;;5052311;28;21027;-86
2023/09/05 05:14:28;;;;;;;5.33;3.10;;;18.20;96.30;;;;;;5052059;28;20873;-85
2023/09/05 05:16:54;;;;;;;5.80;3.07;;;18.20;99.90;;;;;;5049493;28;20182;-87
2023/09/05 05:19:23;;;;;;;5.33;3.00;;;18.20;90.00;;;;;;5055244;28;20456;-85
2023/09/05 05:21:50;;;;;;;7.27;3.70;;;18.30;82.70;;;;;;5054002;28;20186;-86
2023/09/05 05:24:15;;;;;;;4.10;2.77;;;18.30;80.00;;;;;;5054236;28;20439;-85
2023/09/05 05:26:41;;;;;;;4.90;3.00;;;18.30;72.30;;;;;;5071038;28;20432;-85
2023/09/05 05:29:07;;;;;;;7.10;3.10;;;18.30;82.20;;;;;;5047876;28;20237;-85
2023/09/05 05:31:33;;;;;;;4.20;3.50;;;18.30;76.90;;;;;;5057930;28;20440;-86
2023/09/05 05:33:59;;;;;;;6.57;3.13;;;18.40;54.20;;;;;;5055671;28;20468;-86
2023/09/05 05:36:25;;;;;;;4.07;2.83;;;18.40;58.30;;;;;;5055767;28;20412;-86
2023/09/05 05:38:54;;;;;;;6.40;3.30;;;18.40;45.00;;;;;;5053602;28;20451;-85
2023/09/05 05:41:19;;;;;;;6.77;3.30;;;18.50;55.60;;;;;;5053244;28;20524;-85
2023/09/05 05:43:45;;;;;;;7.30;3.53;;;18.50;51.60;;;;;;5058720;28;20453;-85
2023/09/05 05:46:12;;;;;;;7.27;3.50;;;19.60;14.00;;;;;;5051978;28;20190;-85
2023/09/05 05:48:38;;;;;;;6.00;3.30;;;23.30;1.00;;;;;;5047508;28;20275;-86
2023/09/05 05:51:42;;;;;;;5.97;3.20;;;27.00;1.00;;;;;;5054970;28;20558;-86
2023/09/05 05:54:10;;;;;;;4.00;2.87;;;30.50;99.90;;;;;;5041272;28;20494;-87
2023/09/05 05:56:38;;;;;;;3.60;2.40;;;32.60;99.90;;;;;;5051144;28;20929;-86
2023/09/05 05:59:13;;;;;;;6.80;2.90;;;33.80;99.90;;;;;;5052315;28;20448;-87
2023/09/05 06:01:42;;;;;;;5.00;2.40;;;35.10;99.90;;;;;;5051986;28;20458;-87
2023/09/05 06:04:24;;;;;;;6.00;3.20;;;36.50;99.90;;;;;;5055041;28;20468;-87
2023/09/05 06:10:18;;;;;;;5.30;2.60;;;38.90;99.90;;;;;;5049313;28;20468;-88
2023/09/05 06:13:11;;;;;;;5.50;2.50;;;40.80;99.90;;;;;;5055240;28;20807;-88
2023/09/05 06:16:12;;;;;;;2.83;2.43;;;41.50;99.90;;;;;;5054495;28;20468;-88
2023/09/05 06:18:43;;;;;;;3.00;2.57;;;42.30;99.90;;;;;;4995542;28;20529;-87
2023/09/05 06:24:25;;;;;;;3.67;2.50;;;43.80;99.90;;;;;;5057502;28;20794;-87
2023/09/05 06:36:35;;;;;;;2.77;2.50;;;44.80;99.90;;;;;;5042699;28;20443;-86
2023/09/05 06:39:31;;;;;;;4.47;2.00;;;45.40;99.90;;;;;;5051682;28;20436;-87
2023/09/05 06:41:59;;;;;;;3.60;2.50;;;46.00;99.90;;;;;;5001300;28;20440;-87
2023/09/05 06:44:31;;;;;;;5.40;2.67;;;45.80;99.90;;;;;;5040630;28;20429;-88
2023/09/05 06:47:08;;;;;;;3.37;2.50;;;47.10;99.90;;;;;;5047840;28;20928;-88
2023/09/05 06:49:38;;;;;;;3.90;2.60;;;46.20;99.90;;;;;;5036607;28;21045;-88
2023/09/05 06:52:12;;;;;;;2.73;2.53;;;46.50;99.90;;;;;;5048872;28;20436;-88
2023/09/05 06:55:12;;;;;;;5.13;2.43;;;46.30;99.90;;;;;;5035350;28;20891;-87
2023/09/05 06:58:05;;;;;;;;;;;;;;;;;;;;;
2023/09/05 07:00:57;;;;;;;3.60;2.30;;;47.00;99.90;;;;;;5038769;28;20428;-88
2023/09/05 07:07:15;;;;;;;2.43;2.23;;;47.30;99.90;;;;;;4970053;28;20423;-87
2023/09/05 07:16:22;;;;;;;3.40;2.70;;;46.20;99.90;;;;;;5029594;28;20435;-85
2023/09/05 07:22:05;;;;;;;3.73;2.93;;;47.30;99.90;;;;;;5053552;22;20480;-87
2023/09/05 07:31:49;;;;;;;2.90;2.50;;;47.70;99.90;;;;;;5017160;28;20596;-85
2023/09/05 07:34:15;;;;;;;2.70;2.00;;;47.60;99.90;;;;;;5046208;28;20205;-85
2023/09/05 07:36:41;;;;;;;3.40;2.60;;;49.40;99.90;;;;;;5030385;28;20598;-87
2023/09/05 07:39:06;;;;;;;6.10;2.33;;;48.20;99.90;;;;;;5026558;28;20198;-88
2023/09/05 07:41:33;;;;;;;2.73;2.50;;;48.40;99.90;;;;;;5033231;28;20273;-87
2023/09/05 07:43:59;;;;;;;4.17;2.40;;;48.10;99.90;;;;;;5034252;28;20260;-87
2023/09/05 07:46:25;;;;;;;3.53;2.40;;;47.30;99.90;;;;;;5026919;28;20436;-87
2023/09/05 07:48:54;;;;;;;4.87;2.27;;;46.60;99.90;;;;;;5034026;28;20521;-87
2023/09/05 07:51:22;;;;;;;10.00;3.00;;;46.40;99.90;;;;;;5037064;28;20181;-86
2023/09/05 07:53:58;;;;;;;5.00;2.40;;;46.70;99.90;;;;;;5031184;28;20460;-88
2023/09/05 07:56:24;;;;;;;5.00;2.40;;;46.00;99.90;;;;;;5036102;28;20503;-87
2023/09/05 07:58:49;;;;;;;3.50;2.40;;;47.00;99.90;;;;;;5027838;28;20483;-90
2023/09/05 08:01:39;;;;;;;4.13;2.40;;;46.70;99.90;;;;;;5044720;28;20262;-88
2023/09/05 08:04:05;;;;;;;3.37;2.57;;;46.40;99.90;;;;;;5029259;28;20198;-88
2023/09/05 08:06:43;;;;;;;3.87;2.50;;;46.20;99.90;;;;;;5034939;28;20440;-88
2023/09/05 08:09:17;;;;;;;3.20;2.20;;;46.70;99.90;;;;;;5035854;28;20459;-86
2023/09/05 08:11:56;;;;;;;5.27;2.87;;;46.00;99.90;;;;;;5030438;28;20439;-87
2023/09/05 08:14:53;;;;;;;4.10;2.50;;;46.90;99.90;;;;;;5026998;28;20891;-87
2023/09/05 08:17:30;;;;;;;3.30;2.50;;;47.30;99.90;;;;;;5023706;28;20429;-84
2023/09/05 08:20:22;;;;;;;;;;;;;;;;;;;;;
2023/09/05 08:22:57;;;;;;;2.60;2.00;;;46.80;99.90;;;;;;5032986;28;20454;-85
2023/09/05 08:25:50;;;;;;;7.93;3.00;;;46.50;99.90;;;;;;5051517;28;20456;-86
2023/09/05 08:28:22;;;;;;;3.87;2.50;;;45.80;99.90;;;;;;5044115;28;20812;-87
2023/09/05 08:31:00;;;;;;;3.03;2.77;;;45.60;99.90;;;;;;5031231;28;20932;-87
2023/09/05 08:33:35;;;;;;;4.93;2.30;;;44.20;99.90;;;;;;5046582;28;21024;-87
2023/09/05 08:39:13;;;;;;;3.37;2.30;;;45.40;99.90;;;;;;5029361;28;20932;-85
2023/09/05 08:42:12;;;;;;;2.80;2.17;;;45.40;99.90;;;;;;5046099;28;20437;-87
2023/09/05 08:44:45;;;;;;;5.50;2.30;;;44.50;99.90;;;;;;5028972;28;20448;-86
2023/09/05 08:47:16;;;;;;;3.27;2.23;;;43.70;99.90;;;;;;5024840;28;20536;-88
2023/09/05 08:49:50;;;;;;;5.60;2.73;;;44.30;99.90;;;;;;5047609;28;20470;-86
2023/09/05 08:52:35;;;;;;;4.13;2.63;;;43.50;99.90;;;;;;5048098;28;20441;-85
2023/09/05 08:55:29;;;;;;;3.30;2.70;;;43.00;99.90;;;;;;5038374;28;20445;-85
2023/09/05 08:58:06;;;;;;;4.57;3.03;;;42.80;99.90;;;;;;5046758;28;20540;-86
2023/09/05 09:00:38;;;;;;;4.83;1.90;;;42.10;99.90;;;;;;5033980;28;20459;-86
2023/09/05 09:03:39;;;;;;;2.50;2.30;;;43.10;99.90;;;;;;5027104;28;20934;-87
2023/09/05 09:06:36;;;;;;;4.50;2.60;;;42.60;99.90;;;;;;5042707;28;20809;-86
2023/09/05 09:09:38;;;;;;;2.77;2.43;;;42.60;99.90;;;;;;5027581;28;20556;-87
2023/09/05 09:12:34;;;;;;;3.20;2.43;;;41.50;99.90;;;;;;5028259;28;20488;-86
2023/09/05 09:15:27;;;;;;;4.67;1.93;;;41.20;99.90;;;;;;5046800;28;21072;-87
2023/09/05 09:18:12;;;;;;;2.27;1.93;;;42.50;99.90;;;;;;5046813;28;20437;-86
2023/09/05 09:21:10;;;;;;;3.00;2.70;;;42.60;99.90;;;;;;5042563;28;20469;-86
2023/09/05 09:23:40;;;;;;;8.10;2.30;;;41.30;99.90;;;;;;5026944;28;20505;-84
2023/09/05 09:26:19;;;;;;;2.60;2.40;;;41.90;99.90;;;;;;5030976;28;20444;-85
2023/09/05 09:28:59;;;;;;;3.20;1.77;;;42.30;99.90;;;;;;5032814;28;20455;-87
2023/09/05 09:32:00;;;;;;;3.00;2.33;;;43.30;99.90;;;;;;5031089;28;20421;-86
2023/09/05 09:34:46;;;;;;;3.93;1.80;;;43.50;99.90;;;;;;5032778;28;20521;-86
2023/09/05 09:37:33;;;;;;;9.83;3.00;;;42.80;99.90;;;;;;5022233;28;20452;-86
2023/09/05 09:40:27;;;;;;;3.80;2.10;;;41.70;99.90;;;;;;5029361;28;20456;-85
2023/09/05 09:43:13;;;;;;;4.53;2.47;;;42.30;99.90;;;;;;5045605;28;20445;-86
2023/09/05 09:45:53;;;;;;;5.00;2.17;;;41.70;99.90;;;;;;5037235;28;20519;-85
2023/09/05 09:48:35;;;;;;;2.43;1.57;;;42.10;99.90;;;;;;5044073;28;20456;-86
2023/09/05 09:51:10;;;;;;;4.00;2.20;;;42.00;99.90;;;;;;5026716;28;20436;-86
2023/09/05 09:53:50;;;;;;;5.40;2.10;;;42.20;99.90;;;;;;5037475;28;20472;-86
2023/09/05 09:56:34;;;;;;;2.10;1.90;;;42.00;99.90;;;;;;5044813;28;20429;-85
2023/09/05 09:59:01;;;;;;;2.00;1.80;;;42.00;99.90;;;;;;5029349;28;20441;-86
2023/09/05 10:01:28;;;;;;;3.50;2.03;;;42.90;99.90;;;;;;5029748;28;20445;-85
2023/09/05 10:04:19;;;;;;;3.07;2.47;;;42.70;99.90;;;;;;5029471;28;20461;-86
2023/09/05 10:06:57;;;;;;;2.23;1.80;;;41.60;99.90;;;;;;5035022;28;20437;-88
2023/09/05 10:09:49;;;;;;;3.00;2.47;;;42.10;99.90;;;;;;5026005;28;20492;-87
2023/09/05 10:16:00;;;;;;;;;;;;;;;;;;;;;
2023/09/05 10:18:41;;;;;;;2.20;2.00;;;41.80;99.90;;;;;;5027379;28;20441;-84
2023/09/05 10:21:23;;;;;;;3.03;2.23;;;43.00;99.90;;;;;;5029088;28;20449;-84
2023/09/05 10:24:17;;;;;;;5.00;2.17;;;42.10;99.90;;;;;;5045958;28;20445;-86
2023/09/05 10:26:44;;;;;;;6.27;1.70;;;41.70;99.90;;;;;;5023724;28;20446;-86
2023/09/05 10:29:33;;;;;;;3.93;2.27;;;41.40;99.90;;;;;;5044428;28;20457;-86
2023/09/05 10:32:18;;;;;;;3.70;2.10;;;40.80;99.90;;;;;;5024122;28;20445;-86
2023/09/05 10:34:58;;;;;;;1.70;1.60;;;41.40;99.90;;;;;;5038731;28;20460;-86
2023/09/05 10:38:13;;;;;;;6.20;2.30;;;42.10;99.90;;;;;;5044043;28;20473;-86
2023/09/05 10:43:56;;;;;;;5.53;2.37;;;40.80;99.90;;;;;;5026931;28;20513;-86
2023/09/05 10:46:44;;;;;;;3.87;2.20;;;40.20;99.90;;;;;;5034312;28;20460;-86
2023/09/05 10:49:17;;;;;;;4.60;2.10;;;39.50;99.90;;;;;;5045691;28;20453;-86
2023/09/05 10:52:29;;;;;;;4.83;2.00;;;39.90;99.90;;;;;;5059992;28;20436;-85
2023/09/05 10:58:54;;;;;;;8.63;2.13;;;39.40;99.90;;;;;;5007014;28;20480;-86
2023/09/05 11:01:44;;;;;;;2.90;1.97;;;40.00;99.90;;;;;;5029562;28;20440;-85
2023/09/05 11:07:18;;;;;;;2.30;1.87;;;39.50;99.90;;;;;;5019305;28;20970;-86
2023/09/05 11:09:55;;;;;;;2.60;1.70;;;39.90;99.90;;;;;;5021653;28;20484;-87
2023/09/05 11:12:27;;;;;;;2.20;2.00;;;39.90;99.90;;;;;;5041792;28;20450;-86
2023/09/05 11:14:58;;;;;;;3.00;1.97;;;40.20;99.90;;;;;;5028573;28;20444;-86
2023/09/05 11:17:24;;;;;;;4.03;2.20;;;39.50;99.90;;;;;;5031659;28;20425;-86
2023/09/05 11:19:53;;;;;;;3.83;2.13;;;39.40;99.90;;;;;;5031632;28;20448;-85
2023/09/05 11:22:25;;;;;;;9.83;2.17;;;39.50;99.90;;;;;;5054706;28;20605;-86
2023/09/05 11:25:24;;;;;;;3.30;1.97;;;40.00;99.90;;;;;;5033815;28;20456;-86
2023/09/05 11:27:51;;;;;;;5.37;2.00;;;38.90;99.90;;;;;;5043185;28;20605;-85
2023/09/05 11:30:18;;;;;;;4.10;1.73;;;38.50;99.90;;;;;;5045445;28;20511;-85
2023/09/05 11:33:15;;;;;;;6.83;1.93;;;38.90;99.90;;;;;;5024889;28;20476;-85
2023/09/05 11:36:08;;;;;;;2.43;1.60;;;39.30;99.90;;;;;;5029117;28;20835;-86
2023/09/05 11:39:08;;;;;;;3.23;1.90;;;39.40;99.90;;;;;;5029255;28;20491;-86
2023/09/05 11:41:57;;;;;;;5.13;1.80;;;39.60;99.90;;;;;;5028017;28;20919;-88
2023/09/05 11:44:52;;;;;;;3.60;1.80;;;39.50;99.90;;;;;;5041758;28;20448;-87
2023/09/05 11:47:32;;;;;;;3.10;1.87;;;39.40;99.90;;;;;;5023000;28;20474;-86
2023/09/05 11:50:04;;;;;;;3.67;2.03;;;39.40;99.90;;;;;;5024173;28;20461;-87
2023/09/05 11:52:51;;;;;;;4.30;1.80;;;39.40;99.90;;;;;;5028793;28;20528;-85
2023/09/05 11:55:49;;;;;;;9.30;2.20;;;39.40;99.90;;;;;;5029154;28;20881;-86
2023/09/05 11:58:19;;;;;;;2.50;1.70;;;39.00;99.90;;;;;;5023935;28;20532;-84
2023/09/05 12:00:55;;;;;;;10.97;1.90;;;38.70;99.90;;;;;;5038132;28;20993;-86
2023/09/05 12:03:20;;;;;;;2.50;2.00;;;38.90;99.90;;;;;;5028737;28;20460;-86
2023/09/05 12:05:49;;;;;;;4.07;2.00;;;39.00;99.90;;;;;;5020279;28;20433;-87
2023/09/05 12:08:20;;;;;;;4.40;1.83;;;39.30;99.90;;;;;;5024133;28;20270;-86
2023/09/05 12:10:51;;;;;;;1.87;1.60;;;39.00;99.90;;;;;;5027864;28;20540;-86
2023/09/05 12:13:22;;;;;;;9.33;1.80;;;39.70;99.90;;;;;;5032637;28;20464;-87
2023/09/05 12:15:47;;;;;;;4.63;1.83;;;39.30;99.90;;;;;;5043182;28;20466;-88
2023/09/05 12:18:19;;;;;;;1.90;1.63;;;39.10;99.90;;;;;;5024030;28;20997;-88
2023/09/05 12:21:00;;;;;;;2.57;1.40;;;39.20;99.90;;;;;;5027437;28;20233;-86
2023/09/05 12:23:34;;;;;;;3.23;1.50;;;39.30;99.90;;;;;;5020102;28;20449;-86
2023/09/05 12:26:03;;;;;;;3.00;1.87;;;39.10;99.90;;;;;;5041867;28;20453;-86
2023/09/05 12:28:32;;;;;;;2.47;1.70;;;39.10;99.90;;;;;;5046088;28;20468;-87
2023/09/05 12:31:28;;;;;;;1.80;1.40;;;38.90;99.90;;;;;;5026768;28;20445;-86
2023/09/05 12:33:57;;;;;;;5.43;1.87;;;39.20;99.90;;;;;;5025620;28;21112;-85
2023/09/05 12:36:33;;;;;;;4.10;1.93;;;39.20;99.90;;;;;;5021282;28;20440;-86
2023/09/05 12:39:09;;;;;;;3.33;1.90;;;39.10;99.90;;;;;;5022110;28;20904;-85
2023/09/05 12:41:42;;;;;;;2.00;1.57;;;38.90;99.90;;;;;;5026540;28;20528;-87
2023/09/05 12:44:08;;;;;;;5.23;1.77;;;39.00;99.90;;;;;;5026858;28;20452;-88
2023/09/05 12:46:34;;;;;;;2.67;1.60;;;38.80;99.90;;;;;;5028910;28;20441;-87
2023/09/05 12:49:23;;;;;;;2.40;1.50;;;37.90;99.90;;;;;;5040562;28;20461;-86
2023/09/05 12:51:55;;;;;;;2.93;1.70;;;38.30;99.90;;;;;;5025277;28;20450;-84
2023/09/05 12:54:27;;;;;;;4.03;1.70;;;38.40;99.90;;;;;;5026477;28;20547;-88
2023/09/05 12:56:54;;;;;;;4.87;1.70;;;37.80;99.90;;;;;;5026904;28;20461;-85
2023/09/05 12:59:21;;;;;;;1.83;1.63;;;38.10;99.90;;;;;;5030535;28;20826;-86
2023/09/05 13:01:48;;;;;;;2.07;1.57;;;38.20;99.90;;;;;;5031652;28;20810;-87
2023/09/05 13:04:14;;;;;;;5.57;1.40;;;37.60;99.90;;;;;;5030345;28;20441;-85
2023/09/05 13:06:42;;;;;;;4.60;2.13;;;37.90;99.90;;;;;;5029895;28;21029;-86
2023/09/05 13:09:16;;;;;;;1.83;1.60;;;37.30;99.90;;;;;;5032351;28;20202;-85
2023/09/05 13:11:52;;;;;;;5.07;2.10;;;37.40;99.90;;;;;;5031433;28;20945;-86
2023/09/05 13:14:18;;;;;;;2.93;1.80;;;37.30;99.90;;;;;;5027519;28;20553;-85
2023/09/05 13:16:44;;;;;;;3.70;1.83;;;36.80;99.90;;;;;;5031119;28;21050;-85
2023/09/05 13:19:14;;;;;;;4.37;2.00;;;36.80;99.90;;;;;;5030855;28;20209;-87
2023/09/05 13:21:40;;;;;;;3.40;1.50;;;36.70;99.90;;;;;;5029031;28;20187;-86
2023/09/05 13:24:14;;;;;;;5.00;1.40;;;36.90;99.90;;;;;;5024819;28;20527;-86
2023/09/05 13:26:45;;;;;;;2.47;1.60;;;37.00;99.90;;;;;;5027173;28;20571;-86
2023/09/05 13:29:13;;;;;;;4.73;1.57;;;36.80;99.90;;;;;;5044452;28;20594;-85
2023/09/05 13:31:39;;;;;;;3.90;1.27;;;36.20;99.90;;;;;;5029241;28;20453;-84
2023/09/05 13:34:04;;;;;;;2.10;1.40;;;36.50;99.90;;;;;;5031253;28;20481;-85
2023/09/05 13:36:30;;;;;;;5.30;1.67;;;36.30;99.90;;;;;;5027988;28;20240;-85
2023/09/05 13:38:56;;;;;;;1.80;1.33;;;36.30;99.90;;;;;;5029682;28;20214;-85
2023/09/05 13:41:23;;;;;;;3.70;1.70;;;36.00;99.90;;;;;;5043169;28;20183;-88
2023/09/05 13:43:49;;;;;;;2.30;1.70;;;36.30;99.90;;;;;;5049916;28;20203;-85
2023/09/05 13:46:20;;;;;;;7.27;1.40;;;36.30;99.90;;;;;;5037775;28;20482;-85
2023/09/05 13:48:48;;;;;;;3.00;1.40;;;36.40;99.90;;;;;;5023803;28;20244;-85
2023/09/05 13:51:21;;;;;;;2.27;1.47;;;36.00;99.90;;;;;;5029227;28;20456;-85
2023/09/05 13:53:47;;;;;;;2.57;1.50;;;36.00;99.90;;;;;;5026445;28;20487;-85
2023/09/05 13:56:13;;;;;;;3.83;1.70;;;36.00;99.90;;;;;;5028177;28;20425;-84
2023/09/05 13:58:39;;;;;;;2.07;1.53;;;35.90;99.90;;;;;;5023222;28;20460;-84
2023/09/05 14:01:05;;;;;;;2.43;1.50;;;35.90;99.90;;;;;;5024443;28;20753;-85
2023/09/05 14:03:31;;;;;;;3.17;1.60;;;35.90;99.90;;;;;;5023244;28;20647;-84
2023/09/05 14:05:57;;;;;;;2.97;1.60;;;35.80;99.90;;;;;;5022203;28;20449;-86
2023/09/05 14:08:24;;;;;;;2.93;1.40;;;36.10;99.90;;;;;;5024092;28;20514;-83
2023/09/05 14:10:50;;;;;;;2.80;1.23;;;35.70;99.90;;;;;;5022494;28;20455;-87
2023/09/05 14:13:16;;;;;;;3.00;1.53;;;35.60;99.90;;;;;;5018924;28;20463;-85
2023/09/05 14:15:43;;;;;;;1.50;1.23;;;35.70;99.90;;;;;;5003372;28;20439;-87